This is the latest recevied weather packets stored in our database for station/object TONGUE. If no packets are shown the sender has not sent any weather packets the latest 10 day(s).
| Time | Temp. | Humidity | Pressure | Rain* | Wind** | Luminosity | Snow |
|---|---|---|---|---|---|---|---|
| 1788297603 | 19.44° C | 71% | 0 hPa | - | - | - | - |
| 1788297003 | 18.33° C | 74% | 0 hPa | - | - | - | - |
| 1788296403 | 18.89° C | 76% | 0 hPa | - | - | - | - |
| 1788295803 | 18.89° C | 74% | 0 hPa | - | - | - | - |
| 1788295203 | 18.89° C | 76% | 0 hPa | - | - | - | - |
| 1788294630 | 18.89° C | 77% | 0 hPa | - | - | - | - |
| 1788294003 | 18.33° C | 78% | 0 hPa | - | - | - | - |
| 1788293403 | 18.33° C | 79% | 0 hPa | - | - | - | - |
| 1788292804 | 18.33° C | 80% | 0 hPa | - | - | - | - |
| 1788292208 | 17.78° C | 81% | 0 hPa | - | - | - | - |
| 1788291004 | 18.33° C | 79% | 0 hPa | - | - | - | - |
| 1788290402 | 18.89° C | 76% | 0 hPa | - | - | - | - |
| 1788289803 | 18.33° C | 79% | 0 hPa | - | - | - | - |
| 1788289203 | 18.33° C | 79% | 0 hPa | - | - | - | - |
| 1788288603 | 18.33° C | 79% | 0 hPa | - | - | - | - |
| 1788288003 | 18.33° C | 79% | 0 hPa | - | - | - | - |
| 1788287403 | 18.33° C | 79% | 0 hPa | - | - | - | - |
| 1788286803 | 18.89° C | 78% | 0 hPa | - | - | - | - |
| 1788286202 | 17.78° C | 82% | 0 hPa | - | - | - | - |
| 1788285003 | 17.78° C | 81% | 0 hPa | - | - | - | - |
| 1788284403 | 17.22° C | 82% | 0 hPa | - | - | - | - |
| 1788283809 | 17.22° C | 86% | 0 hPa | - | - | - | - |
| 1788283202 | 17.22° C | 84% | 0 hPa | - | - | - | - |
| 1788282003 | 17.22° C | 86% | 0 hPa | - | - | - | - |
| 1788281403 | 17.78° C | 85% | 0 hPa | - | - | - | - |
* Rain since midnight (hover to see other rain measurements)
** Current wind speed in m/s (hover to see current wind gust speed)